sensor_id;sensor_type;location;lat;lon;timestamp;pressure;altitude;pressure_sealevel;temperature;humidity
84026;BME280;74110;45.660;25.582;2024-03-02T00:01:51;94876.61;;;10.50;39.22
84026;BME280;74110;45.660;25.582;2024-03-02T00:04:20;94867.95;;;10.52;39.33
84026;BME280;74110;45.660;25.582;2024-03-02T00:06:50;94867.08;;;10.52;39.64
84026;BME280;74110;45.660;25.582;2024-03-02T00:09:19;94866.07;;;10.52;39.76
84026;BME280;74110;45.660;25.582;2024-03-02T00:11:47;94859.77;;;10.52;39.98
84026;BME280;74110;45.660;25.582;2024-03-02T00:14:15;94848.60;;;10.52;40.21
84026;BME280;74110;45.660;25.582;2024-03-02T00:16:43;94848.55;;;10.54;39.89
84026;BME280;74110;45.660;25.582;2024-03-02T00:19:12;94858.70;;;10.54;40.35
84026;BME280;74110;45.660;25.582;2024-03-02T00:21:41;94866.15;;;10.54;40.13
84026;BME280;74110;45.660;25.582;2024-03-02T00:24:32;94867.70;;;10.53;40.67
84026;BME280;74110;45.660;25.582;2024-03-02T00:27:03;94868.74;;;10.52;40.61
84026;BME280;74110;45.660;25.582;2024-03-02T00:29:34;94865.91;;;10.53;40.28
84026;BME280;74110;45.660;25.582;2024-03-02T00:32:03;94866.58;;;10.50;40.43
84026;BME280;74110;45.660;25.582;2024-03-02T00:34:33;94869.27;;;10.46;40.23
84026;BME280;74110;45.660;25.582;2024-03-02T00:37:02;94869.59;;;10.42;40.24
84026;BME280;74110;45.660;25.582;2024-03-02T00:39:30;94867.66;;;10.40;40.01
84026;BME280;74110;45.660;25.582;2024-03-02T00:41:57;94873.80;;;10.37;39.84
84026;BME280;74110;45.660;25.582;2024-03-02T00:44:26;94870.48;;;10.36;39.91
84026;BME280;74110;45.660;25.582;2024-03-02T00:46:53;94863.48;;;10.35;39.90
84026;BME280;74110;45.660;25.582;2024-03-02T00:49:24;94858.98;;;10.36;40.04
84026;BME280;74110;45.660;25.582;2024-03-02T00:51:54;94855.06;;;10.36;39.89
84026;BME280;74110;45.660;25.582;2024-03-02T00:54:24;94847.98;;;10.36;39.74
84026;BME280;74110;45.660;25.582;2024-03-02T00:56:55;94844.27;;;10.37;39.71
84026;BME280;74110;45.660;25.582;2024-03-02T00:59:25;94847.20;;;10.38;39.68
84026;BME280;74110;45.660;25.582;2024-03-02T01:01:54;94844.66;;;10.38;39.58
84026;BME280;74110;45.660;25.582;2024-03-02T01:04:22;94837.68;;;10.38;39.18
84026;BME280;74110;45.660;25.582;2024-03-02T01:06:49;94829.24;;;10.38;39.44
84026;BME280;74110;45.660;25.582;2024-03-02T01:09:18;94829.09;;;10.35;39.34
84026;BME280;74110;45.660;25.582;2024-03-02T01:11:47;94822.39;;;10.32;39.39
84026;BME280;74110;45.660;25.582;2024-03-02T01:14:15;94819.56;;;10.30;39.37
84026;BME280;74110;45.660;25.582;2024-03-02T01:16:43;94826.21;;;10.29;39.51
84026;BME280;74110;45.660;25.582;2024-03-02T01:19:10;94821.43;;;10.30;39.47
84026;BME280;74110;45.660;25.582;2024-03-02T01:21:40;94821.65;;;10.29;39.75
84026;BME280;74110;45.660;25.582;2024-03-02T01:24:08;94832.78;;;10.30;39.80
84026;BME280;74110;45.660;25.582;2024-03-02T01:26:37;94837.23;;;10.31;39.51
84026;BME280;74110;45.660;25.582;2024-03-02T01:29:04;94837.23;;;10.28;39.53
84026;BME280;74110;45.660;25.582;2024-03-02T01:31:33;94838.62;;;10.24;39.60
84026;BME280;74110;45.660;25.582;2024-03-02T01:34:01;94841.56;;;10.19;39.52
84026;BME280;74110;45.660;25.582;2024-03-02T01:36:29;94835.81;;;10.13;39.35
84026;BME280;74110;45.660;25.582;2024-03-02T01:39:00;94836.56;;;10.05;39.38
84026;BME280;74110;45.660;25.582;2024-03-02T01:41:28;94835.83;;;9.97;39.44
84026;BME280;74110;45.660;25.582;2024-03-02T01:43:56;94831.71;;;9.90;39.79
84026;BME280;74110;45.660;25.582;2024-03-02T01:46:24;94830.75;;;9.86;39.97
84026;BME280;74110;45.660;25.582;2024-03-02T01:48:52;94830.39;;;9.81;40.07
84026;BME280;74110;45.660;25.582;2024-03-02T01:51:20;94831.17;;;9.77;40.51
84026;BME280;74110;45.660;25.582;2024-03-02T01:53:48;94827.66;;;9.72;40.50
84026;BME280;74110;45.660;25.582;2024-03-02T01:56:15;94833.00;;;9.61;40.78
84026;BME280;74110;45.660;25.582;2024-03-02T01:58:44;94833.67;;;9.55;40.73
84026;BME280;74110;45.660;25.582;2024-03-02T02:01:14;94837.59;;;9.50;40.94
84026;BME280;74110;45.660;25.582;2024-03-02T02:03:44;94832.52;;;9.52;40.96
84026;BME280;74110;45.660;25.582;2024-03-02T02:06:12;94832.71;;;9.53;40.82
84026;BME280;74110;45.660;25.582;2024-03-02T02:08:40;94830.23;;;9.50;41.10
84026;BME280;74110;45.660;25.582;2024-03-02T02:11:07;94822.72;;;9.50;41.02
84026;BME280;74110;45.660;25.582;2024-03-02T02:13:36;94817.60;;;9.50;40.89
84026;BME280;74110;45.660;25.582;2024-03-02T02:16:09;94815.83;;;9.46;41.01
84026;BME280;74110;45.660;25.582;2024-03-02T02:18:38;94810.28;;;9.43;41.39
84026;BME280;74110;45.660;25.582;2024-03-02T02:21:07;94804.86;;;9.38;41.84
84026;BME280;74110;45.660;25.582;2024-03-02T02:23:36;94803.55;;;9.32;42.39
84026;BME280;74110;45.660;25.582;2024-03-02T02:26:04;94808.42;;;9.28;43.26
84026;BME280;74110;45.660;25.582;2024-03-02T02:28:36;94810.63;;;9.29;43.15
84026;BME280;74110;45.660;25.582;2024-03-02T02:31:05;94806.59;;;9.27;43.62
84026;BME280;74110;45.660;25.582;2024-03-02T02:33:33;94802.20;;;9.27;43.81
84026;BME280;74110;45.660;25.582;2024-03-02T02:36:01;94803.44;;;9.29;43.22
84026;BME280;74110;45.660;25.582;2024-03-02T02:38:28;94803.04;;;9.26;44.20
84026;BME280;74110;45.660;25.582;2024-03-02T02:40:57;94799.11;;;9.22;45.04
84026;BME280;74110;45.660;25.582;2024-03-02T02:43:25;94798.03;;;9.20;45.27
84026;BME280;74110;45.660;25.582;2024-03-02T02:45:53;94794.45;;;9.18;45.58
84026;BME280;74110;45.660;25.582;2024-03-02T02:48:21;94799.43;;;9.16;45.71
84026;BME280;74110;45.660;25.582;2024-03-02T02:50:49;94801.70;;;9.16;45.47
84026;BME280;74110;45.660;25.582;2024-03-02T02:53:17;94796.74;;;9.13;45.72
84026;BME280;74110;45.660;25.582;2024-03-02T02:55:46;94794.27;;;9.15;45.46
84026;BME280;74110;45.660;25.582;2024-03-02T02:58:15;94795.88;;;9.17;45.00
84026;BME280;74110;45.660;25.582;2024-03-02T03:00:43;94792.55;;;9.19;44.98
84026;BME280;74110;45.660;25.582;2024-03-02T03:03:11;94791.06;;;9.21;44.99
84026;BME280;74110;45.660;25.582;2024-03-02T03:05:39;94787.33;;;9.22;45.07
84026;BME280;74110;45.660;25.582;2024-03-02T03:08:09;94781.13;;;9.24;44.83
84026;BME280;74110;45.660;25.582;2024-03-02T03:10:36;94778.83;;;9.25;45.13
84026;BME280;74110;45.660;25.582;2024-03-02T03:13:06;94781.13;;;9.24;45.01
84026;BME280;74110;45.660;25.582;2024-03-02T03:15:36;94780.63;;;9.18;45.17
84026;BME280;74110;45.660;25.582;2024-03-02T03:18:04;94781.63;;;9.18;45.19
84026;BME280;74110;45.660;25.582;2024-03-02T03:20:32;94785.32;;;9.19;45.82
84026;BME280;74110;45.660;25.582;2024-03-02T03:23:02;94787.33;;;9.20;45.58
84026;BME280;74110;45.660;25.582;2024-03-02T03:25:31;94788.34;;;9.20;45.39
84026;BME280;74110;45.660;25.582;2024-03-02T03:27:59;94786.31;;;9.20;45.87
84026;BME280;74110;45.660;25.582;2024-03-02T03:30:28;94789.66;;;9.19;45.89
84026;BME280;74110;45.660;25.582;2024-03-02T03:32:57;94790.84;;;9.19;46.28
84026;BME280;74110;45.660;25.582;2024-03-02T03:35:26;94786.14;;;9.20;46.01
84026;BME280;74110;45.660;25.582;2024-03-02T03:37:53;94787.48;;;9.20;46.23
84026;BME280;74110;45.660;25.582;2024-03-02T03:40:21;94783.08;;;9.19;46.11
84026;BME280;74110;45.660;25.582;2024-03-02T03:42:49;94781.41;;;9.18;47.00
84026;BME280;74110;45.660;25.582;2024-03-02T03:45:18;94790.80;;;9.18;46.04
84026;BME280;74110;45.660;25.582;2024-03-02T03:47:51;94780.66;;;9.17;46.83
84026;BME280;74110;45.660;25.582;2024-03-02T03:50:19;94787.29;;;9.16;46.90
84026;BME280;74110;45.660;25.582;2024-03-02T03:52:48;94784.14;;;9.15;47.39
84026;BME280;74110;45.660;25.582;2024-03-02T03:55:18;94779.46;;;9.15;45.94
84026;BME280;74110;45.660;25.582;2024-03-02T03:57:45;94774.89;;;9.16;46.44
84026;BME280;74110;45.660;25.582;2024-03-02T04:00:13;94771.29;;;9.16;46.46
84026;BME280;74110;45.660;25.582;2024-03-02T04:02:41;94772.95;;;9.17;46.22
84026;BME280;74110;45.660;25.582;2024-03-02T04:05:10;94774.98;;;9.18;46.71
84026;BME280;74110;45.660;25.582;2024-03-02T04:07:39;94775.58;;;9.18;46.78
84026;BME280;74110;45.660;25.582;2024-03-02T04:10:26;94777.50;;;9.13;47.59
84026;BME280;74110;45.660;25.582;2024-03-02T04:12:54;94779.64;;;9.04;47.58
84026;BME280;74110;45.660;25.582;2024-03-02T04:15:22;94778.98;;;8.98;47.76
84026;BME280;74110;45.660;25.582;2024-03-02T04:17:51;94781.20;;;8.99;47.45
84026;BME280;74110;45.660;25.582;2024-03-02T04:20:19;94784.16;;;8.99;46.60
84026;BME280;74110;45.660;25.582;2024-03-02T04:22:47;94788.52;;;9.01;47.13
84026;BME280;74110;45.660;25.582;2024-03-02T04:25:15;94781.61;;;8.99;47.37
84026;BME280;74110;45.660;25.582;2024-03-02T04:27:42;94787.10;;;8.98;47.63
84026;BME280;74110;45.660;25.582;2024-03-02T04:30:11;94784.58;;;8.94;48.77
84026;BME280;74110;45.660;25.582;2024-03-02T04:32:40;94781.83;;;8.91;48.14
84026;BME280;74110;45.660;25.582;2024-03-02T04:35:10;94785.11;;;8.86;47.99
84026;BME280;74110;45.660;25.582;2024-03-02T04:37:39;94786.11;;;8.84;48.20
84026;BME280;74110;45.660;25.582;2024-03-02T04:40:07;94781.04;;;8.83;48.00
84026;BME280;74110;45.660;25.582;2024-03-02T04:42:39;94780.34;;;8.83;48.13
84026;BME280;74110;45.660;25.582;2024-03-02T04:45:09;94783.42;;;8.83;47.83
84026;BME280;74110;45.660;25.582;2024-03-02T04:47:37;94786.27;;;8.84;47.49
84026;BME280;74110;45.660;25.582;2024-03-02T04:50:09;94788.70;;;8.84;47.19
84026;BME280;74110;45.660;25.582;2024-03-02T04:52:38;94788.20;;;8.85;47.28
84026;BME280;74110;45.660;25.582;2024-03-02T04:55:07;94787.88;;;8.85;47.32
84026;BME280;74110;45.660;25.582;2024-03-02T04:58:03;94786.48;;;8.84;47.83
84026;BME280;74110;45.660;25.582;2024-03-02T05:00:32;94785.31;;;8.81;47.65
84026;BME280;74110;45.660;25.582;2024-03-02T05:03:01;94787.82;;;8.80;48.74
84026;BME280;74110;45.660;25.582;2024-03-02T05:05:29;94785.77;;;8.77;48.21
84026;BME280;74110;45.660;25.582;2024-03-02T05:07:56;94787.42;;;8.76;48.57
84026;BME280;74110;45.660;25.582;2024-03-02T05:10:26;94786.41;;;8.77;48.27
84026;BME280;74110;45.660;25.582;2024-03-02T05:12:54;94789.87;;;8.68;49.43
84026;BME280;74110;45.660;25.582;2024-03-02T05:15:28;94788.61;;;8.70;48.15
84026;BME280;74110;45.660;25.582;2024-03-02T05:17:56;94792.17;;;8.74;48.13
84026;BME280;74110;45.660;25.582;2024-03-02T05:20:26;94788.55;;;8.78;48.84
84026;BME280;74110;45.660;25.582;2024-03-02T05:22:53;94798.67;;;8.84;48.23
84026;BME280;74110;45.660;25.582;2024-03-02T05:25:22;94800.42;;;8.86;47.91
84026;BME280;74110;45.660;25.582;2024-03-02T05:27:50;94801.77;;;8.88;48.64
84026;BME280;74110;45.660;25.582;2024-03-02T05:30:18;94808.79;;;8.92;48.93
84026;BME280;74110;45.660;25.582;2024-03-02T05:32:47;94812.10;;;8.99;49.26
84026;BME280;74110;45.660;25.582;2024-03-02T05:35:14;94809.15;;;9.06;49.20
84026;BME280;74110;45.660;25.582;2024-03-02T05:37:43;94807.04;;;9.10;48.92
84026;BME280;74110;45.660;25.582;2024-03-02T05:40:11;94807.60;;;9.16;48.55
84026;BME280;74110;45.660;25.582;2024-03-02T05:42:40;94807.20;;;9.23;48.58
84026;BME280;74110;45.660;25.582;2024-03-02T05:45:10;94809.23;;;9.32;48.67
84026;BME280;74110;45.660;25.582;2024-03-02T05:47:38;94807.12;;;9.39;48.24
84026;BME280;74110;45.660;25.582;2024-03-02T05:50:07;94813.79;;;9.45;48.03
84026;BME280;74110;45.660;25.582;2024-03-02T05:52:35;94813.92;;;9.49;48.21
84026;BME280;74110;45.660;25.582;2024-03-02T05:55:04;94809.69;;;9.55;47.54
84026;BME280;74110;45.660;25.582;2024-03-02T05:57:33;94805.17;;;9.60;47.61
84026;BME280;74110;45.660;25.582;2024-03-02T06:00:26;94809.19;;;9.65;47.83
84026;BME280;74110;45.660;25.582;2024-03-02T06:02:55;94813.09;;;9.69;47.45
84026;BME280;74110;45.660;25.582;2024-03-02T06:05:26;94810.77;;;9.72;47.32
84026;BME280;74110;45.660;25.582;2024-03-02T06:07:54;94811.89;;;9.75;47.27
84026;BME280;74110;45.660;25.582;2024-03-02T06:10:22;94812.95;;;9.75;47.22
84026;BME280;74110;45.660;25.582;2024-03-02T06:12:51;94813.05;;;9.75;47.23
84026;BME280;74110;45.660;25.582;2024-03-02T06:15:19;94816.19;;;9.77;47.07
84026;BME280;74110;45.660;25.582;2024-03-02T06:17:46;94815.07;;;9.79;47.59
84026;BME280;74110;45.660;25.582;2024-03-02T06:20:15;94820.73;;;9.80;47.55
84026;BME280;74110;45.660;25.582;2024-03-02T06:22:45;94818.39;;;9.83;47.21
84026;BME280;74110;45.660;25.582;2024-03-02T06:25:12;94823.39;;;9.87;46.99
84026;BME280;74110;45.660;25.582;2024-03-02T06:27:41;94824.33;;;9.92;47.13
84026;BME280;74110;45.660;25.582;2024-03-02T06:30:11;94825.33;;;9.95;47.02
84026;BME280;74110;45.660;25.582;2024-03-02T06:32:39;94821.13;;;10.02;46.69
84026;BME280;74110;45.660;25.582;2024-03-02T06:35:08;94821.51;;;10.07;46.78
84026;BME280;74110;45.660;25.582;2024-03-02T06:37:38;94822.04;;;10.13;46.91
84026;BME280;74110;45.660;25.582;2024-03-02T06:40:08;94816.66;;;10.21;46.64
84026;BME280;74110;45.660;25.582;2024-03-02T06:42:36;94821.83;;;10.27;46.41
84026;BME280;74110;45.660;25.582;2024-03-02T06:45:07;94822.73;;;10.33;47.05
84026;BME280;74110;45.660;25.582;2024-03-02T06:47:36;94822.60;;;10.38;46.61
84026;BME280;74110;45.660;25.582;2024-03-02T06:50:04;94825.64;;;10.44;46.49
84026;BME280;74110;45.660;25.582;2024-03-02T06:52:33;94823.45;;;10.48;46.25
84026;BME280;74110;45.660;25.582;2024-03-02T06:55:03;94821.37;;;10.53;46.38
84026;BME280;74110;45.660;25.582;2024-03-02T06:57:32;94824.00;;;10.58;46.04
84026;BME280;74110;45.660;25.582;2024-03-02T07:00:00;94820.40;;;10.63;46.12
84026;BME280;74110;45.660;25.582;2024-03-02T07:02:29;94815.02;;;10.72;45.94
84026;BME280;74110;45.660;25.582;2024-03-02T07:04:56;94820.58;;;10.81;46.00
84026;BME280;74110;45.660;25.582;2024-03-02T07:07:25;94819.48;;;10.90;45.46
84026;BME280;74110;45.660;25.582;2024-03-02T07:09:52;94819.50;;;10.96;45.54
84026;BME280;74110;45.660;25.582;2024-03-02T07:12:20;94817.27;;;11.04;44.90
84026;BME280;74110;45.660;25.582;2024-03-02T07:14:48;94817.70;;;11.09;44.89
84026;BME280;74110;45.660;25.582;2024-03-02T07:17:45;94817.29;;;11.17;45.07
84026;BME280;74110;45.660;25.582;2024-03-02T07:20:14;94818.30;;;11.21;44.73
84026;BME280;74110;45.660;25.582;2024-03-02T07:22:43;94818.99;;;11.22;44.46
84026;BME280;74110;45.660;25.582;2024-03-02T07:25:12;94825.45;;;11.25;44.61
84026;BME280;74110;45.660;25.582;2024-03-02T07:27:44;94827.11;;;11.27;44.46
84026;BME280;74110;45.660;25.582;2024-03-02T07:30:15;94828.23;;;11.28;44.37
84026;BME280;74110;45.660;25.582;2024-03-02T07:32:46;94825.33;;;11.28;44.41
84026;BME280;74110;45.660;25.582;2024-03-02T07:35:14;94823.23;;;11.30;44.46
84026;BME280;74110;45.660;25.582;2024-03-02T07:37:42;94823.47;;;11.32;44.14
84026;BME280;74110;45.660;25.582;2024-03-02T07:40:11;94820.73;;;11.33;43.97
84026;BME280;74110;45.660;25.582;2024-03-02T07:42:41;94820.73;;;11.37;43.72
84026;BME280;74110;45.660;25.582;2024-03-02T07:45:09;94822.43;;;11.36;43.61
84026;BME280;74110;45.660;25.582;2024-03-02T07:47:37;94817.24;;;11.37;43.44
84026;BME280;74110;45.660;25.582;2024-03-02T07:50:06;94817.83;;;11.38;43.36
84026;BME280;74110;45.660;25.582;2024-03-02T07:52:34;94816.09;;;11.41;43.54
84026;BME280;74110;45.660;25.582;2024-03-02T07:55:02;94822.05;;;11.45;43.74
84026;BME280;74110;45.660;25.582;2024-03-02T07:57:31;94822.20;;;11.47;43.40
84026;BME280;74110;45.660;25.582;2024-03-02T07:59:59;94815.91;;;11.49;43.49
84026;BME280;74110;45.660;25.582;2024-03-02T08:02:27;94815.95;;;11.51;43.32
84026;BME280;74110;45.660;25.582;2024-03-02T08:04:55;94817.80;;;11.54;43.12
84026;BME280;74110;45.660;25.582;2024-03-02T08:07:26;94818.51;;;11.59;42.94
84026;BME280;74110;45.660;25.582;2024-03-02T08:09:55;94813.73;;;11.64;43.13
84026;BME280;74110;45.660;25.582;2024-03-02T08:12:23;94813.02;;;11.68;42.69
84026;BME280;74110;45.660;25.582;2024-03-02T08:14:53;94812.80;;;11.74;42.24
84026;BME280;74110;45.660;25.582;2024-03-02T08:17:22;94808.64;;;11.79;42.26
84026;BME280;74110;45.660;25.582;2024-03-02T08:19:51;94814.63;;;11.89;42.40
84026;BME280;74110;45.660;25.582;2024-03-02T08:22:19;94810.89;;;12.01;42.04
84026;BME280;74110;45.660;25.582;2024-03-02T08:24:48;94814.96;;;12.10;41.76
84026;BME280;74110;45.660;25.582;2024-03-02T08:27:17;94810.31;;;12.22;42.17
84026;BME280;74110;45.660;25.582;2024-03-02T08:29:44;94808.71;;;12.36;41.94
84026;BME280;74110;45.660;25.582;2024-03-02T08:32:13;94804.05;;;12.48;41.81
84026;BME280;74110;45.660;25.582;2024-03-02T08:34:40;94798.62;;;12.59;41.36
84026;BME280;74110;45.660;25.582;2024-03-02T08:37:08;94798.10;;;12.68;41.27
84026;BME280;74110;45.660;25.582;2024-03-02T08:39:36;94797.57;;;12.74;40.83
84026;BME280;74110;45.660;25.582;2024-03-02T08:42:04;94798.34;;;12.78;40.79
84026;BME280;74110;45.660;25.582;2024-03-02T08:44:32;94799.32;;;12.83;40.39
84026;BME280;74110;45.660;25.582;2024-03-02T08:47:00;94798.16;;;12.92;40.42
84026;BME280;74110;45.660;25.582;2024-03-02T08:49:28;94797.12;;;12.98;40.18
84026;BME280;74110;45.660;25.582;2024-03-02T08:51:56;94795.43;;;13.04;40.11
84026;BME280;74110;45.660;25.582;2024-03-02T08:54:24;94792.27;;;13.08;40.24
84026;BME280;74110;45.660;25.582;2024-03-02T08:56:52;94790.67;;;13.13;40.07
84026;BME280;74110;45.660;25.582;2024-03-02T08:59:20;94794.27;;;13.18;39.79
84026;BME280;74110;45.660;25.582;2024-03-02T09:01:48;94790.33;;;13.24;40.12
84026;BME280;74110;45.660;25.582;2024-03-02T09:04:17;94790.99;;;13.26;39.52
84026;BME280;74110;45.660;25.582;2024-03-02T09:06:45;94792.63;;;13.21;39.52
84026;BME280;74110;45.660;25.582;2024-03-02T09:09:14;94793.29;;;13.30;39.64
84026;BME280;74110;45.660;25.582;2024-03-02T09:11:42;94792.42;;;13.35;39.62
84026;BME280;74110;45.660;25.582;2024-03-02T09:14:15;94789.42;;;13.42;39.81
84026;BME280;74110;45.660;25.582;2024-03-02T09:16:43;94786.19;;;13.50;39.77
84026;BME280;74110;45.660;25.582;2024-03-02T09:19:11;94786.21;;;13.60;39.35
84026;BME280;74110;45.660;25.582;2024-03-02T09:21:42;94786.39;;;13.67;39.70
84026;BME280;74110;45.660;25.582;2024-03-02T09:24:12;94786.21;;;13.62;38.76
84026;BME280;74110;45.660;25.582;2024-03-02T09:26:44;94783.70;;;13.61;38.89
84026;BME280;74110;45.660;25.582;2024-03-02T09:29:13;94782.74;;;13.66;38.93
84026;BME280;74110;45.660;25.582;2024-03-02T09:31:41;94779.84;;;13.67;38.97
84026;BME280;74110;45.660;25.582;2024-03-02T09:34:10;94783.27;;;13.65;38.43
84026;BME280;74110;45.660;25.582;2024-03-02T09:36:38;94783.09;;;13.72;38.96
84026;BME280;74110;45.660;25.582;2024-03-02T09:39:08;94781.40;;;13.79;39.11
84026;BME280;74110;45.660;25.582;2024-03-02T09:41:38;94782.10;;;13.77;39.02
84026;BME280;74110;45.660;25.582;2024-03-02T09:44:07;94778.65;;;13.70;38.59
84026;BME280;74110;45.660;25.582;2024-03-02T09:46:37;94773.78;;;13.73;38.78
84026;BME280;74110;45.660;25.582;2024-03-02T09:49:06;94775.14;;;13.78;38.85
84026;BME280;74110;45.660;25.582;2024-03-02T09:51:34;94773.30;;;13.85;38.70
84026;BME280;74110;45.660;25.582;2024-03-02T09:54:03;94773.11;;;13.77;38.31
84026;BME280;74110;45.660;25.582;2024-03-02T09:56:47;94773.27;;;13.77;38.30
84026;BME280;74110;45.660;25.582;2024-03-02T09:59:15;94770.29;;;13.81;38.41
84026;BME280;74110;45.660;25.582;2024-03-02T10:01:56;94768.86;;;13.90;38.49
84026;BME280;74110;45.660;25.582;2024-03-02T10:04:49;94773.14;;;13.97;38.37
84026;BME280;74110;45.660;25.582;2024-03-02T10:07:18;94769.19;;;13.91;38.06
84026;BME280;74110;45.660;25.582;2024-03-02T10:09:49;94770.17;;;14.01;38.34
84026;BME280;74110;45.660;25.582;2024-03-02T10:12:21;94765.58;;;14.05;38.19
84026;BME280;74110;45.660;25.582;2024-03-02T10:14:51;94761.80;;;14.09;37.77
84026;BME280;74110;45.660;25.582;2024-03-02T10:17:31;94759.77;;;14.18;37.96
84026;BME280;74110;45.660;25.582;2024-03-02T10:19:59;94751.14;;;14.27;37.75
84026;BME280;74110;45.660;25.582;2024-03-02T10:22:28;94750.35;;;14.21;37.25
84026;BME280;74110;45.660;25.582;2024-03-02T10:24:57;94745.98;;;14.27;37.46
84026;BME280;74110;45.660;25.582;2024-03-02T10:27:28;94750.03;;;14.40;38.28
84026;BME280;74110;45.660;25.582;2024-03-02T10:29:57;94748.45;;;14.52;37.96
84026;BME280;74110;45.660;25.582;2024-03-02T10:32:26;94747.84;;;14.54;37.40
84026;BME280;74110;45.660;25.582;2024-03-02T10:34:55;94745.63;;;14.68;37.60
84026;BME280;74110;45.660;25.582;2024-03-02T10:37:24;94740.80;;;14.80;38.04
84026;BME280;74110;45.660;25.582;2024-03-02T10:39:52;94741.45;;;14.81;36.69
84026;BME280;74110;45.660;25.582;2024-03-02T10:42:22;94739.74;;;14.92;37.43
84026;BME280;74110;45.660;25.582;2024-03-02T10:44:51;94738.38;;;15.07;36.84
84026;BME280;74110;45.660;25.582;2024-03-02T10:47:25;94737.27;;;15.16;36.58
84026;BME280;74110;45.660;25.582;2024-03-02T10:49:57;94733.61;;;15.21;36.24
84026;BME280;74110;45.660;25.582;2024-03-02T10:52:27;94735.02;;;15.19;36.18
84026;BME280;74110;45.660;25.582;2024-03-02T10:54:56;94731.99;;;15.26;36.68
84026;BME280;74110;45.660;25.582;2024-03-02T10:57:26;94727.55;;;15.42;36.80
84026;BME280;74110;45.660;25.582;2024-03-02T11:00:03;94729.66;;;15.59;36.70
84026;BME280;74110;45.660;25.582;2024-03-02T11:02:35;94722.31;;;15.69;36.79
84026;BME280;74110;45.660;25.582;2024-03-02T11:05:06;94723.97;;;15.79;36.95
84026;BME280;74110;45.660;25.582;2024-03-02T11:07:37;94720.02;;;15.64;36.81
84026;BME280;74110;45.660;25.582;2024-03-02T11:10:09;94717.77;;;15.68;36.75
84026;BME280;74110;45.660;25.582;2024-03-02T11:13:09;94721.12;;;15.65;36.47
84026;BME280;74110;45.660;25.582;2024-03-02T11:15:41;94722.56;;;15.70;36.82
84026;BME280;74110;45.660;25.582;2024-03-02T11:18:12;94721.06;;;15.74;36.79
84026;BME280;74110;45.660;25.582;2024-03-02T11:20:42;94718.84;;;15.52;37.15
84026;BME280;74110;45.660;25.582;2024-03-02T11:23:10;94718.27;;;15.72;37.23
84026;BME280;74110;45.660;25.582;2024-03-02T11:25:39;94717.09;;;15.77;37.23
84026;BME280;74110;45.660;25.582;2024-03-02T11:28:08;94715.09;;;15.84;37.36
84026;BME280;74110;45.660;25.582;2024-03-02T11:33:23;94710.76;;;15.97;37.17
84026;BME280;74110;45.660;25.582;2024-03-02T11:35:52;94710.17;;;15.98;36.62
84026;BME280;74110;45.660;25.582;2024-03-02T11:38:20;94701.66;;;15.89;36.85
84026;BME280;74110;45.660;25.582;2024-03-02T11:40:50;94700.16;;;15.82;37.10
84026;BME280;74110;45.660;25.582;2024-03-02T11:43:19;94699.13;;;15.75;37.31
84026;BME280;74110;45.660;25.582;2024-03-02T11:45:47;94697.97;;;15.64;37.21
84026;BME280;74110;45.660;25.582;2024-03-02T11:48:15;94694.81;;;15.55;37.34
84026;BME280;74110;45.660;25.582;2024-03-02T11:50:50;94693.21;;;15.56;37.52
84026;BME280;74110;45.660;25.582;2024-03-02T11:53:20;94687.47;;;15.47;37.35
84026;BME280;74110;45.660;25.582;2024-03-02T11:55:49;94689.52;;;15.45;37.69
84026;BME280;74110;45.660;25.582;2024-03-02T11:58:19;94688.73;;;15.41;37.86
84026;BME280;74110;45.660;25.582;2024-03-02T12:00:55;94687.88;;;15.46;37.85
84026;BME280;74110;45.660;25.582;2024-03-02T12:03:24;94682.61;;;15.49;37.63
84026;BME280;74110;45.660;25.582;2024-03-02T12:05:54;94684.86;;;15.48;37.60
84026;BME280;74110;45.660;25.582;2024-03-02T12:08:22;94684.13;;;15.43;37.74
84026;BME280;74110;45.660;25.582;2024-03-02T12:11:00;94682.84;;;15.41;38.00
84026;BME280;74110;45.660;25.582;2024-03-02T12:13:30;94682.70;;;15.34;37.88
84026;BME280;74110;45.660;25.582;2024-03-02T12:16:00;94682.02;;;15.37;38.31
84026;BME280;74110;45.660;25.582;2024-03-02T12:18:28;94685.66;;;15.44;38.07
84026;BME280;74110;45.660;25.582;2024-03-02T12:20:56;94679.17;;;15.37;38.00
84026;BME280;74110;45.660;25.582;2024-03-02T12:23:26;94680.42;;;15.33;37.85
84026;BME280;74110;45.660;25.582;2024-03-02T12:25:55;94679.36;;;15.31;38.17
84026;BME280;74110;45.660;25.582;2024-03-02T12:28:25;94681.45;;;15.34;37.89
84026;BME280;74110;45.660;25.582;2024-03-02T12:30:54;94684.63;;;15.42;37.55
84026;BME280;74110;45.660;25.582;2024-03-02T12:33:23;94681.54;;;15.41;37.32
84026;BME280;74110;45.660;25.582;2024-03-02T12:35:50;94682.73;;;15.48;37.58
84026;BME280;74110;45.660;25.582;2024-03-02T12:38:19;94682.27;;;15.50;37.23
84026;BME280;74110;45.660;25.582;2024-03-02T12:40:48;94681.72;;;15.50;37.48
84026;BME280;74110;45.660;25.582;2024-03-02T12:43:18;94679.67;;;15.56;37.27
84026;BME280;74110;45.660;25.582;2024-03-02T12:45:48;94679.41;;;15.57;37.46
84026;BME280;74110;45.660;25.582;2024-03-02T12:48:18;94679.95;;;15.60;37.23
84026;BME280;74110;45.660;25.582;2024-03-02T12:50:46;94675.65;;;15.62;37.45
84026;BME280;74110;45.660;25.582;2024-03-02T12:53:16;94677.96;;;15.66;37.03
84026;BME280;74110;45.660;25.582;2024-03-02T12:55:45;94680.20;;;15.61;37.02
84026;BME280;74110;45.660;25.582;2024-03-02T12:58:22;94679.45;;;15.56;36.97
84026;BME280;74110;45.660;25.582;2024-03-02T13:01:06;94676.66;;;15.45;37.18
84026;BME280;74110;45.660;25.582;2024-03-02T13:03:38;94674.68;;;15.33;37.51
84026;BME280;74110;45.660;25.582;2024-03-02T13:06:06;94670.42;;;15.23;37.75
84026;BME280;74110;45.660;25.582;2024-03-02T13:08:35;94672.52;;;15.17;37.98